createdAt,value
2022-07-25T00:00:32.763Z,9.65
2022-07-25T00:03:01.127Z,11.00
2022-07-25T00:05:37.636Z,11.05
2022-07-25T00:08:06.762Z,9.13
2022-07-25T00:10:35.219Z,9.63
2022-07-25T00:13:03.588Z,12.20
2022-07-25T00:15:31.996Z,9.40
2022-07-25T00:18:00.412Z,8.77
2022-07-25T00:20:28.838Z,9.52
2022-07-25T00:22:58.554Z,8.85
2022-07-25T00:25:27.020Z,9.82
2022-07-25T00:27:55.409Z,12.02
2022-07-25T00:30:23.972Z,9.88
2022-07-25T00:32:52.597Z,10.45
2022-07-25T00:35:21.109Z,9.15
2022-07-25T00:37:49.480Z,10.88
2022-07-25T00:40:19.248Z,8.70
2022-07-25T00:42:47.692Z,13.93
2022-07-25T00:45:16.261Z,9.02
2022-07-25T00:47:44.636Z,9.63
2022-07-25T00:50:13.153Z,9.25
2022-07-25T00:52:41.668Z,10.27
2022-07-25T00:55:10.358Z,9.65
2022-07-25T00:57:40.118Z,9.27
2022-07-25T01:00:10.248Z,9.35
2022-07-25T01:02:38.707Z,9.07
2022-07-25T01:05:07.748Z,9.13
2022-07-25T01:07:39.213Z,8.95
2022-07-25T01:10:08.686Z,8.75
2022-07-25T01:12:49.089Z,9.43
2022-07-25T01:15:18.090Z,10.30
2022-07-25T01:17:46.538Z,9.18
2022-07-25T01:20:17.045Z,9.43
2022-07-25T01:22:45.512Z,10.30
2022-07-25T01:25:14.240Z,11.18
2022-07-25T01:27:42.926Z,9.75
2022-07-25T01:30:13.432Z,8.95
2022-07-25T01:32:41.965Z,10.20
2022-07-25T01:35:11.014Z,9.07
2022-07-25T01:37:40.904Z,9.23
2022-07-25T01:40:14.077Z,10.70
2022-07-25T01:42:42.947Z,10.02
2022-07-25T01:45:12.018Z,10.00
2022-07-25T01:47:40.417Z,11.43
2022-07-25T01:50:09.752Z,10.10
2022-07-25T01:52:39.641Z,10.52
2022-07-25T01:55:10.088Z,10.52
2022-07-25T01:57:39.723Z,10.57
2022-07-25T02:00:10.067Z,10.05
2022-07-25T02:02:38.431Z,9.93
2022-07-25T02:05:08.898Z,9.73
2022-07-25T02:07:37.427Z,9.43
2022-07-25T02:10:06.679Z,10.65
2022-07-25T02:12:36.496Z,8.82
2022-07-25T02:15:04.999Z,8.45
2022-07-25T02:17:33.416Z,8.77
2022-07-25T02:20:01.841Z,9.40
2022-07-25T02:22:30.222Z,9.52
2022-07-25T02:24:58.647Z,9.48
2022-07-25T02:27:27.009Z,8.98
2022-07-25T02:29:56.796Z,8.82
2022-07-25T02:32:25.182Z,9.50
2022-07-25T02:34:54.266Z,9.82
2022-07-25T02:37:22.646Z,10.35
2022-07-25T02:39:51.055Z,9.07
2022-07-25T02:42:19.417Z,9.50
2022-07-25T02:44:47.812Z,12.18
2022-07-25T02:47:17.552Z,10.63
2022-07-25T02:49:45.975Z,10.02
2022-07-25T02:52:14.372Z,10.67
2022-07-25T02:54:42.756Z,10.30
2022-07-25T02:57:11.158Z,10.23
2022-07-25T02:59:39.542Z,10.33
2022-07-25T03:02:07.957Z,10.25
2022-07-25T03:04:37.755Z,10.18
2022-07-25T03:07:06.229Z,10.10
2022-07-25T03:09:34.616Z,9.80
2022-07-25T03:12:03.018Z,10.13
2022-07-25T03:14:31.419Z,9.43
2022-07-25T03:16:59.874Z,9.70
2022-07-25T03:19:28.290Z,10.23
2022-07-25T03:21:58.057Z,10.03
2022-07-25T03:24:26.410Z,9.57
2022-07-25T03:26:55.155Z,9.57
2022-07-25T03:29:23.515Z,9.65
2022-07-25T03:31:52.022Z,9.53
2022-07-25T03:34:20.432Z,9.43
2022-07-25T03:36:48.846Z,10.88
2022-07-25T03:39:18.849Z,8.80
2022-07-25T03:41:47.257Z,8.87
2022-07-25T03:44:15.762Z,9.67
2022-07-25T03:46:44.167Z,8.37
2022-07-25T03:49:12.601Z,8.47
2022-07-25T03:51:41.161Z,8.93
2022-07-25T03:54:13.754Z,9.23
2022-07-25T03:56:44.605Z,9.43
2022-07-25T03:59:13.725Z,11.50
2022-07-25T04:01:42.556Z,9.47
2022-07-25T04:04:11.120Z,8.90
2022-07-25T04:06:39.550Z,8.13
2022-07-25T04:09:08.318Z,7.33
2022-07-25T04:11:38.365Z,7.95
2022-07-25T04:14:08.763Z,7.07
2022-07-25T04:16:37.662Z,7.47
2022-07-25T04:19:08.873Z,6.43
2022-07-25T04:21:37.312Z,6.67
2022-07-25T04:24:05.918Z,6.80
2022-07-25T04:26:34.634Z,6.30
2022-07-25T04:29:04.008Z,6.40
2022-07-25T04:31:33.884Z,8.48
2022-07-25T04:34:02.322Z,6.10
2022-07-25T04:36:30.782Z,6.25
2022-07-25T04:38:59.151Z,5.38
2022-07-25T04:41:27.555Z,5.70
2022-07-25T04:43:55.967Z,5.57
2022-07-25T04:46:24.651Z,6.85
2022-07-25T04:48:54.643Z,5.60
2022-07-25T04:51:23.109Z,5.25
2022-07-25T04:53:51.591Z,5.53
2022-07-25T04:56:20.044Z,5.45
2022-07-25T04:58:49.103Z,7.63
2022-07-25T05:01:17.610Z,5.90
2022-07-25T05:03:50.381Z,5.80
2022-07-25T05:06:20.612Z,6.78
2022-07-25T05:08:48.994Z,5.15
2022-07-25T05:11:17.400Z,5.30
2022-07-25T05:13:45.756Z,5.50
2022-07-25T05:16:14.261Z,5.60
2022-07-25T05:18:42.776Z,5.70
2022-07-25T05:21:11.960Z,6.55
2022-07-25T05:23:41.701Z,7.13
2022-07-25T05:26:10.217Z,5.82
2022-07-25T05:28:38.607Z,5.80
2022-07-25T05:31:07.118Z,6.80
2022-07-25T05:33:36.750Z,8.05
2022-07-25T05:36:05.357Z,5.45
2022-07-25T05:38:33.723Z,5.70
2022-07-25T05:41:03.657Z,7.50
2022-07-25T05:43:32.188Z,5.18
2022-07-25T05:46:02.366Z,5.72
2022-07-25T05:48:30.833Z,5.45
2022-07-25T05:51:00.236Z,5.30
2022-07-25T05:53:36.306Z,7.88
2022-07-25T05:56:06.363Z,5.50
2022-07-25T05:58:34.751Z,6.80
2022-07-25T06:01:03.293Z,7.25
2022-07-25T06:03:31.669Z,5.50
2022-07-25T06:06:00.103Z,4.95
2022-07-25T06:08:28.739Z,5.38
2022-07-25T06:10:57.720Z,4.85
2022-07-25T06:13:27.535Z,4.90
2022-07-25T06:15:56.720Z,5.70
2022-07-25T06:18:25.356Z,5.63
2022-07-25T06:20:53.807Z,5.20
2022-07-25T06:23:23.294Z,5.55
2022-07-25T06:25:56.048Z,5.03
2022-07-25T06:28:24.418Z,5.63
2022-07-25T06:30:54.325Z,5.90
2022-07-25T06:33:22.807Z,6.20
2022-07-25T06:35:51.446Z,5.20
2022-07-25T06:38:19.859Z,5.32
2022-07-25T06:40:48.360Z,5.38
2022-07-25T06:43:16.722Z,6.40
2022-07-25T06:45:47.647Z,5.53
2022-07-25T06:48:17.762Z,5.68
2022-07-25T06:50:46.359Z,7.25
2022-07-25T06:53:14.725Z,5.30
2022-07-25T06:55:43.184Z,5.38
2022-07-25T06:58:11.559Z,6.28
2022-07-25T07:00:40.378Z,5.40
2022-07-25T07:03:08.867Z,5.38
2022-07-25T07:05:38.671Z,5.93
2022-07-25T07:08:07.720Z,6.05
2022-07-25T07:10:36.155Z,6.22
2022-07-25T07:13:05.628Z,5.60
2022-07-25T07:15:36.811Z,5.70
2022-07-25T07:18:06.769Z,5.65
2022-07-25T07:20:35.196Z,6.90
2022-07-25T07:23:04.997Z,6.32
2022-07-25T07:25:34.325Z,5.97
2022-07-25T07:28:03.081Z,6.03
2022-07-25T07:30:58.572Z,6.07
2022-07-25T07:33:20.029Z,8.32
2022-07-25T07:35:48.541Z,5.78
2022-07-25T07:38:18.413Z,7.78
2022-07-25T07:40:47.496Z,6.22
2022-07-25T07:43:15.860Z,8.00
2022-07-25T07:45:44.595Z,6.47
2022-07-25T07:48:13.027Z,6.13
2022-07-25T07:50:41.500Z,6.20
2022-07-25T07:53:10.185Z,6.40
2022-07-25T07:55:45.694Z,5.82
2022-07-25T07:58:15.758Z,5.90
2022-07-25T08:00:45.159Z,6.55
2022-07-25T08:03:13.706Z,6.85
2022-07-25T08:05:43.037Z,6.53
2022-07-25T08:08:12.618Z,5.93
2022-07-25T08:10:44.109Z,6.55
2022-07-25T08:13:16.473Z,5.72
2022-07-25T08:15:45.120Z,6.20
2022-07-25T08:18:16.967Z,6.75
2022-07-25T08:20:46.167Z,7.07
2022-07-25T08:23:14.549Z,6.60
2022-07-25T08:25:44.625Z,6.50
2022-07-25T08:28:13.834Z,6.50
2022-07-25T08:30:43.111Z,6.78
2022-07-25T08:33:13.458Z,6.38
2022-07-25T08:35:42.858Z,6.63
2022-07-25T08:38:12.106Z,6.18
2022-07-25T08:40:40.567Z,6.70
2022-07-25T08:43:12.925Z,6.90
2022-07-25T08:45:44.112Z,6.68
2022-07-25T08:48:12.690Z,6.45
2022-07-25T08:50:41.463Z,6.03
2022-07-25T08:53:32.266Z,6.70
2022-07-25T08:55:58.412Z,6.20
2022-07-25T08:58:28.178Z,6.20
2022-07-25T09:00:56.662Z,6.10
2022-07-25T09:03:25.064Z,7.25
2022-07-25T09:05:54.696Z,6.00
2022-07-25T09:08:23.195Z,5.63
2022-07-25T09:10:52.346Z,6.72
2022-07-25T09:13:22.215Z,6.30
2022-07-25T09:15:52.905Z,6.40
2022-07-25T09:18:24.921Z,5.97
2022-07-25T09:20:54.885Z,6.45
2022-07-25T09:23:32.988Z,6.35
2022-07-25T09:26:05.806Z,6.10
2022-07-25T09:28:34.839Z,6.50
2022-07-25T09:31:04.805Z,6.25
2022-07-25T09:33:33.543Z,6.15
2022-07-25T09:36:11.887Z,6.53
2022-07-25T09:38:40.863Z,6.18
2022-07-25T09:41:10.241Z,6.35
2022-07-25T09:43:39.380Z,6.32
2022-07-25T09:46:10.065Z,6.60
2022-07-25T09:48:39.717Z,6.65
2022-07-25T09:51:08.750Z,5.97
2022-07-25T09:53:37.386Z,6.32
2022-07-25T09:56:08.489Z,6.07
2022-07-25T09:58:37.024Z,6.32
2022-07-25T10:01:07.067Z,6.15
2022-07-25T10:03:47.140Z,5.70
2022-07-25T10:06:20.432Z,6.30
2022-07-25T10:08:49.641Z,5.85
2022-07-25T10:11:21.849Z,6.68
2022-07-25T10:13:50.494Z,6.38
2022-07-25T10:16:19.552Z,6.10
2022-07-25T10:18:53.491Z,6.10
2022-07-25T10:21:26.914Z,7.80
2022-07-25T10:23:59.728Z,7.30
2022-07-25T10:26:28.159Z,6.15
2022-07-25T10:28:57.301Z,6.45
2022-07-25T10:31:27.880Z,6.10
2022-07-25T10:33:59.558Z,7.00
2022-07-25T10:36:30.276Z,6.90
2022-07-25T10:38:59.284Z,6.45
2022-07-25T10:41:28.804Z,6.30
2022-07-25T10:43:58.891Z,6.32
2022-07-25T10:46:30.881Z,5.85
2022-07-25T10:49:01.903Z,6.82
2022-07-25T10:51:30.828Z,6.32
2022-07-25T10:53:59.311Z,9.82
2022-07-25T10:56:28.919Z,6.47
2022-07-25T10:58:58.426Z,6.38
2022-07-25T11:01:27.990Z,7.05
2022-07-25T11:03:57.194Z,7.03
2022-07-25T11:06:33.622Z,7.85
2022-07-25T11:09:02.182Z,7.05
2022-07-25T11:11:40.601Z,6.28
2022-07-25T11:14:16.655Z,6.55
2022-07-25T11:16:45.197Z,8.50
2022-07-25T11:19:21.060Z,6.35
2022-07-25T11:21:51.719Z,6.70
2022-07-25T11:24:20.355Z,6.80
2022-07-25T11:26:50.702Z,7.13
2022-07-25T11:29:23.861Z,6.65
2022-07-25T11:31:55.876Z,7.05
2022-07-25T11:34:25.218Z,6.28
2022-07-25T11:36:57.564Z,6.57
2022-07-25T11:39:27.228Z,6.72
2022-07-25T11:42:05.463Z,6.00
2022-07-25T11:44:34.703Z,6.90
2022-07-25T11:47:03.197Z,7.15
2022-07-25T11:49:31.635Z,7.00
2022-07-25T11:52:01.413Z,6.68
2022-07-25T11:54:29.800Z,6.55
2022-07-25T11:56:58.220Z,6.82
2022-07-25T11:59:26.712Z,6.30
2022-07-25T12:01:55.165Z,5.68
2022-07-25T12:04:23.747Z,6.93
2022-07-25T12:06:52.179Z,7.10
2022-07-25T12:09:22.991Z,6.05
2022-07-25T12:11:51.799Z,6.40
2022-07-25T12:14:20.186Z,5.47
2022-07-25T12:16:48.661Z,6.55
2022-07-25T12:19:20.827Z,5.82
2022-07-25T12:21:49.310Z,5.35
2022-07-25T12:24:17.690Z,5.88
2022-07-25T12:26:47.471Z,6.35
2022-07-25T12:29:15.836Z,6.03
2022-07-25T12:31:44.273Z,6.50
2022-07-25T12:34:12.641Z,5.85
2022-07-25T12:36:44.148Z,6.00
2022-07-25T12:39:12.732Z,7.20
2022-07-25T12:41:42.696Z,6.00
2022-07-25T12:44:12.836Z,6.40
2022-07-25T12:46:48.803Z,6.00
2022-07-25T12:49:18.131Z,8.02
2022-07-25T12:51:46.590Z,7.50
2022-07-25T12:54:21.661Z,7.45
2022-07-25T12:56:50.922Z,6.15
2022-07-25T12:59:21.433Z,6.82
2022-07-25T13:01:50.129Z,6.82
2022-07-25T13:04:32.851Z,7.07
2022-07-25T13:07:05.356Z,6.28
2022-07-25T13:09:33.879Z,6.80
2022-07-25T13:12:02.562Z,7.47
2022-07-25T13:14:32.313Z,6.60
2022-07-25T13:17:01.208Z,5.97
2022-07-25T13:19:43.677Z,9.18
2022-07-25T13:22:12.729Z,6.90
2022-07-25T13:24:41.232Z,6.47
2022-07-25T13:27:09.807Z,6.70
2022-07-25T13:29:39.639Z,6.45
2022-07-25T13:32:08.457Z,6.78
2022-07-25T13:34:36.864Z,6.32
2022-07-25T13:37:05.580Z,7.60
2022-07-25T13:39:35.769Z,6.10
2022-07-25T13:42:04.881Z,6.30
2022-07-25T13:44:33.608Z,6.10
2022-07-25T13:47:07.255Z,6.75
2022-07-25T13:49:37.042Z,6.60
2022-07-25T13:52:05.532Z,6.50
2022-07-25T13:54:34.223Z,5.90
2022-07-25T13:57:03.577Z,6.43
2022-07-25T13:59:32.055Z,6.45
2022-07-25T14:02:00.531Z,7.25
2022-07-25T14:04:30.795Z,5.93
2022-07-25T14:06:59.227Z,7.00
2022-07-25T14:09:27.782Z,8.70
2022-07-25T14:11:56.152Z,9.93
2022-07-25T14:14:24.657Z,6.85
2022-07-25T14:16:53.218Z,7.00
2022-07-25T14:19:21.823Z,7.63
2022-07-25T14:21:51.565Z,7.55
2022-07-25T14:24:19.993Z,9.15
2022-07-25T14:26:49.209Z,7.10
2022-07-25T14:29:36.085Z,6.93
2022-07-25T14:32:04.935Z,7.53
2022-07-25T14:34:33.448Z,10.07
2022-07-25T14:37:03.456Z,7.65
2022-07-25T14:39:31.852Z,8.23
2022-07-25T14:42:00.515Z,7.38
2022-07-25T14:44:29.071Z,7.82
2022-07-25T14:46:59.170Z,7.80
2022-07-25T14:49:29.117Z,7.78
2022-07-25T14:51:57.617Z,8.38
2022-07-25T14:54:28.490Z,8.30
2022-07-25T14:56:57.250Z,9.65
2022-07-25T14:59:25.801Z,8.95
2022-07-25T15:01:54.340Z,8.98
2022-07-25T15:04:25.219Z,8.73
2022-07-25T15:06:53.982Z,9.25
2022-07-25T15:09:22.962Z,8.05
2022-07-25T15:11:52.755Z,8.27
2022-07-25T15:14:21.146Z,7.47
2022-07-25T15:16:49.947Z,8.05
2022-07-25T15:19:18.565Z,8.25
2022-07-25T15:21:47.213Z,8.23
2022-07-25T15:24:16.176Z,7.80
2022-07-25T15:26:44.839Z,8.20
2022-07-25T15:29:20.475Z,5.80
2022-07-25T15:31:49.531Z,9.98
2022-07-25T15:34:18.767Z,6.63
2022-07-25T15:36:47.153Z,6.80
2022-07-25T15:39:15.693Z,6.57
2022-07-25T15:41:44.260Z,5.68
2022-07-25T15:44:15.263Z,5.75
2022-07-25T15:46:43.820Z,6.13
2022-07-25T15:49:12.597Z,5.00
2022-07-25T15:51:41.152Z,6.18
2022-07-25T15:54:09.751Z,6.80
2022-07-25T15:56:41.473Z,6.22
2022-07-25T15:59:10.250Z,8.63
2022-07-25T16:01:40.284Z,5.07
2022-07-25T16:04:08.862Z,5.22
2022-07-25T16:06:38.257Z,7.53
2022-07-25T16:09:07.230Z,8.15
2022-07-25T16:11:38.412Z,5.32
2022-07-25T16:14:06.979Z,8.90
2022-07-25T16:16:37.379Z,5.13
2022-07-25T16:19:09.498Z,17.40
2022-07-25T16:21:40.115Z,6.18
2022-07-25T16:24:09.486Z,5.43
2022-07-25T16:26:37.987Z,5.13
2022-07-25T16:29:07.390Z,5.90
2022-07-25T16:31:36.043Z,5.40
2022-07-25T16:34:04.859Z,2.92
2022-07-25T16:36:34.868Z,3.28
2022-07-25T16:39:04.601Z,4.40
2022-07-25T16:41:33.172Z,6.22
2022-07-25T16:44:01.590Z,2.50
2022-07-25T16:46:30.212Z,3.60
2022-07-25T16:48:58.820Z,3.33
2022-07-25T16:51:27.227Z,4.90
2022-07-25T16:53:56.995Z,4.18
2022-07-25T16:56:25.379Z,3.50
2022-07-25T16:58:54.171Z,4.15
2022-07-25T17:01:25.065Z,4.82
2022-07-25T17:03:54.416Z,3.03
2022-07-25T17:06:22.834Z,6.43
2022-07-25T17:08:52.708Z,5.43
2022-07-25T17:11:22.636Z,5.20
2022-07-25T17:13:51.221Z,4.68
2022-07-25T17:16:19.880Z,5.68
2022-07-25T17:18:48.406Z,8.45
2022-07-25T17:21:18.634Z,4.40
2022-07-25T17:23:48.100Z,3.47
2022-07-25T17:26:16.551Z,3.95
2022-07-25T17:28:46.587Z,4.82
2022-07-25T17:31:15.367Z,6.30
2022-07-25T17:36:26.897Z,6.85
2022-07-25T17:39:10.638Z,3.88
2022-07-25T17:41:39.249Z,4.22
2022-07-25T17:44:11.960Z,7.05
2022-07-25T17:46:41.593Z,8.70
2022-07-25T17:49:10.764Z,7.93
2022-07-25T17:51:39.301Z,5.75
2022-07-25T17:54:08.831Z,6.38
2022-07-25T17:56:51.495Z,5.80
2022-07-25T17:59:21.499Z,5.38
2022-07-25T18:01:52.898Z,8.45
2022-07-25T18:04:22.532Z,4.40
2022-07-25T18:06:51.024Z,5.22
2022-07-25T18:09:20.402Z,5.35
2022-07-25T18:11:48.981Z,7.05
2022-07-25T18:14:17.420Z,4.72
2022-07-25T18:16:47.227Z,5.70
2022-07-25T18:19:15.987Z,9.00
2022-07-25T18:21:45.063Z,4.60
2022-07-25T18:24:13.588Z,4.68
2022-07-25T18:26:45.084Z,3.25
2022-07-25T18:29:13.670Z,6.25
2022-07-25T18:31:44.995Z,5.28
2022-07-25T18:34:18.046Z,5.15
2022-07-25T18:37:05.710Z,5.22
2022-07-25T18:39:34.230Z,5.60
2022-07-25T18:42:02.618Z,8.68
2022-07-25T18:44:32.494Z,8.13
2022-07-25T18:47:01.125Z,6.43
2022-07-25T18:49:32.666Z,4.50
2022-07-25T18:52:04.138Z,6.55
2022-07-25T18:54:35.474Z,5.75
2022-07-25T18:57:06.046Z,7.80
2022-07-25T18:59:37.486Z,7.35
2022-07-25T19:02:06.745Z,4.80
2022-07-25T19:04:39.744Z,6.47
2022-07-25T19:07:09.197Z,5.22
2022-07-25T19:09:37.781Z,6.90
2022-07-25T19:12:06.384Z,5.43
2022-07-25T19:14:34.888Z,5.45
2022-07-25T19:17:03.741Z,5.85
2022-07-25T19:19:32.917Z,6.65
2022-07-25T19:22:02.801Z,5.53
2022-07-25T19:24:31.461Z,3.83
2022-07-25T19:26:59.968Z,6.00
2022-07-25T19:29:28.493Z,6.57
2022-07-25T19:31:57.023Z,5.70
2022-07-25T19:34:25.602Z,6.25
2022-07-25T19:36:55.690Z,4.65
2022-07-25T19:39:25.575Z,5.10
2022-07-25T19:41:53.980Z,7.07
2022-07-25T19:44:22.504Z,6.05
2022-07-25T19:46:50.890Z,6.15
2022-07-25T19:49:19.395Z,4.88
2022-07-25T19:51:47.996Z,6.93
2022-07-25T19:54:16.389Z,5.45
2022-07-25T19:56:49.128Z,5.70
2022-07-25T19:59:17.576Z,6.55
2022-07-25T20:01:47.247Z,6.38
2022-07-25T20:04:16.438Z,4.28
2022-07-25T20:06:44.825Z,6.75
2022-07-25T20:09:13.222Z,4.63
2022-07-25T20:11:42.061Z,5.80
2022-07-25T20:14:12.172Z,4.97
2022-07-25T20:16:40.683Z,6.32
2022-07-25T20:19:11.268Z,6.50
2022-07-25T20:21:40.232Z,6.05
2022-07-25T20:24:08.890Z,5.65
2022-07-25T20:26:37.459Z,8.07
2022-07-25T20:29:07.819Z,9.07
2022-07-25T20:31:37.823Z,4.18
2022-07-25T20:34:06.258Z,6.43
2022-07-25T20:36:34.650Z,6.72
2022-07-25T20:39:03.070Z,5.00
2022-07-25T20:41:33.838Z,6.72
2022-07-25T20:44:03.359Z,8.57
2022-07-25T20:46:35.828Z,6.00
2022-07-25T20:49:06.890Z,5.30
2022-07-25T20:51:35.528Z,4.63
2022-07-25T20:54:03.958Z,5.50
2022-07-25T20:56:32.489Z,4.70
2022-07-25T20:59:01.026Z,5.07
2022-07-25T21:01:29.520Z,9.20
2022-07-25T21:06:41.851Z,5.45
2022-07-25T21:09:14.713Z,3.72
2022-07-25T21:11:58.059Z,4.93
2022-07-25T21:14:27.826Z,2.92
2022-07-25T21:16:56.544Z,5.43
2022-07-25T21:19:25.055Z,3.65
2022-07-25T21:21:54.839Z,5.25
2022-07-25T21:24:23.464Z,4.00
2022-07-25T21:26:52.087Z,5.90
2022-07-25T21:29:20.497Z,4.60
2022-07-25T21:31:48.993Z,5.95
2022-07-25T21:34:17.555Z,5.35
2022-07-25T21:36:48.383Z,5.35
2022-07-25T21:39:18.160Z,5.22
2022-07-25T21:41:46.728Z,10.48
2022-07-25T21:44:21.164Z,5.20
2022-07-25T21:46:49.721Z,6.45
2022-07-25T21:49:40.688Z,4.45
2022-07-25T21:52:13.582Z,5.10
2022-07-25T21:54:44.388Z,7.85
2022-07-25T21:57:13.663Z,5.78
2022-07-25T21:59:42.647Z,6.63
2022-07-25T22:02:11.138Z,4.60
2022-07-25T22:04:39.635Z,4.13
2022-07-25T22:07:08.072Z,5.07
2022-07-25T22:09:37.174Z,6.30
2022-07-25T22:12:07.359Z,4.75
2022-07-25T22:14:36.940Z,5.28
2022-07-25T22:17:05.744Z,6.57
2022-07-25T22:19:34.270Z,5.38
2022-07-25T22:22:02.676Z,6.45
2022-07-25T22:24:31.220Z,5.85
2022-07-25T22:26:59.599Z,6.72
2022-07-25T22:29:29.477Z,6.75
2022-07-25T22:31:58.036Z,4.53
2022-07-25T22:34:31.139Z,3.40
2022-07-25T22:36:59.634Z,3.75
2022-07-25T22:39:28.233Z,4.80
2022-07-25T22:41:56.605Z,7.90
2022-07-25T22:44:25.076Z,5.63
2022-07-25T22:46:54.928Z,6.53
2022-07-25T22:49:25.267Z,7.35
2022-07-25T22:51:53.984Z,6.07
2022-07-25T22:54:22.710Z,4.65
2022-07-25T22:56:51.180Z,6.22
2022-07-25T22:59:19.946Z,8.20
2022-07-25T23:01:48.360Z,5.65
2022-07-25T23:04:18.229Z,6.95
2022-07-25T23:06:47.322Z,6.15
2022-07-25T23:09:15.822Z,6.13
2022-07-25T23:11:44.448Z,3.38
2022-07-25T23:14:12.983Z,6.72
2022-07-25T23:16:41.423Z,4.07
2022-07-25T23:19:10.241Z,5.65
2022-07-25T23:21:40.196Z,6.15
2022-07-25T23:24:08.858Z,6.43
2022-07-25T23:26:37.261Z,3.42
2022-07-25T23:29:06.042Z,2.45
2022-07-25T23:31:34.764Z,3.25
2022-07-25T23:34:04.784Z,4.70
2022-07-25T23:36:33.217Z,6.45
2022-07-25T23:39:02.950Z,8.80
2022-07-25T23:41:31.364Z,5.60
2022-07-25T23:44:00.580Z,2.92
2022-07-25T23:46:30.982Z,4.30
2022-07-25T23:49:00.230Z,3.72
2022-07-25T23:51:28.716Z,3.40
2022-07-25T23:53:57.133Z,5.38
2022-07-25T23:56:26.994Z,3.58
2022-07-25T23:58:55.487Z,4.93
